Time;durP1;ratioP1;P1;durP2;ratioP2;P2;SDS_P1;SDS_P2;PMS_P1;PMS_P2;Temp;Humidity;BMP_temperature;BMP_pressure;BME280_temperature;BME280_humidity;BME280_pressure;Samples;Min_cycle;Max_cycle;Signal;HPM_P1;HPM_P2
2024/01/07 00:02:34;;;;;;;500.02;42.15;;;;;;;0.17;100.00;98289.78;15293094;19;20016;-58
2024/01/07 00:08:01;;;;;;;281.30;36.60;;;;;;;0.10;100.00;98287.53;15294611;19;20018;-58
2024/01/07 00:13:26;;;;;;;208.30;36.13;;;;;;;0.02;100.00;98299.56;15297672;19;20021;-59
2024/01/07 00:18:50;;;;;;;192.75;37.33;;;;;;;-0.06;100.00;98297.38;15292911;19;20018;-57
2024/01/07 00:24:18;;;;;;;206.48;37.10;;;;;;;-0.11;100.00;98310.91;15299578;19;20038;-58
2024/01/07 00:29:42;;;;;;;218.25;38.05;;;;;;;-0.17;100.00;98312.16;15286652;19;20011;-58
2024/01/07 00:35:08;;;;;;;184.48;37.97;;;;;;;-0.22;100.00;98319.53;15283632;19;20086;-59
2024/01/07 00:40:35;;;;;;;240.10;39.83;;;;;;;-0.26;100.00;98314.53;15289308;19;20011;-57
2024/01/07 00:46:00;;;;;;;306.73;41.13;;;;;;;-0.27;100.00;98315.47;15037561;19;5001759;-55
2024/01/07 00:51:31;;;;;;;194.05;36.65;;;;;;;-0.25;100.00;98326.81;15291334;19;20012;-58
2024/01/07 00:56:59;;;;;;;89.85;32.50;;;;;;;-0.28;100.00;98341.09;15293423;19;20044;-58
2024/01/07 01:02:24;;;;;;;114.15;33.97;;;;;;;-0.32;100.00;98344.88;15286300;19;20486;-58
2024/01/07 01:07:49;;;;;;;113.65;36.75;;;;;;;-0.39;100.00;98349.69;15285644;19;20014;-59
2024/01/07 01:13:16;;;;;;;121.05;37.72;;;;;;;-0.45;100.00;98358.03;15289422;19;20070;-58
2024/01/07 01:18:41;;;;;;;96.32;37.58;;;;;;;-0.49;100.00;98361.78;15289733;19;20022;-59
2024/01/07 01:24:06;;;;;;;84.85;35.20;;;;;;;-0.51;100.00;98366.31;15294779;19;20074;-56
2024/01/07 01:29:36;;;;;;;102.30;35.25;;;;;;;-0.53;100.00;98362.94;15291464;19;20704;-57
2024/01/07 01:35:00;;;;;;;108.07;36.42;;;;;;;-0.56;100.00;98358.66;15282138;19;21001;-59
2024/01/07 01:40:25;;;;;;;98.18;37.30;;;;;;;-0.54;100.00;98382.41;15286076;19;20483;-57
2024/01/07 01:45:52;;;;;;;141.52;35.20;;;;;;;-0.52;100.00;98385.78;15286638;19;20788;-58
2024/01/07 01:51:17;;;;;;;157.70;35.05;;;;;;;-0.60;100.00;98388.03;15286448;19;20377;-57
2024/01/07 01:56:42;;;;;;;208.75;33.33;;;;;;;-0.70;100.00;98393.91;15288950;19;20347;-56
2024/01/07 02:02:10;;;;;;;173.30;34.33;;;;;;;-0.72;100.00;98401.06;15283607;19;20015;-58
2024/01/07 02:07:38;;;;;;;136.55;34.42;;;;;;;-0.71;100.00;98415.16;15289814;19;20018;-58
2024/01/07 02:12:56;;;;;;;50.45;27.70;;;;;;;-0.75;100.00;98417.09;15026531;19;5002146;-58
2024/01/07 02:18:24;;;;;;;37.97;23.63;;;;;;;-0.81;100.00;98434.19;15283688;19;20029;-55
2024/01/07 02:23:48;;;;;;;24.67;17.58;;;;;;;-0.81;100.00;98436.00;15289685;19;20019;-58
2024/01/07 02:29:16;;;;;;;20.05;15.20;;;;;;;-0.84;100.00;98430.88;15285545;19;20431;-57
2024/01/07 02:34:40;;;;;;;18.17;14.80;;;;;;;-0.86;100.00;98435.41;15303144;19;20019;-57
2024/01/07 02:40:06;;;;;;;20.65;15.25;;;;;;;-0.90;100.00;98439.19;15306081;19;20367;-58
2024/01/07 02:45:33;;;;;;;17.65;14.07;;;;;;;-0.90;100.00;98444.47;15299872;19;20599;-56
2024/01/07 02:50:58;;;;;;;16.48;13.50;;;;;;;-0.93;100.00;98440.19;15297804;19;20422;-57
2024/01/07 02:56:22;;;;;;;20.33;14.43;;;;;;;-0.93;100.00;98456.06;15296431;19;20017;-58
2024/01/07 03:01:50;;;;;;;22.88;14.93;;;;;;;-0.89;100.00;98462.06;15298513;19;20394;-56
2024/01/07 03:07:15;;;;;;;28.20;16.60;;;;;;;-0.91;100.00;98458.63;15300441;19;20371;-57
2024/01/07 03:12:39;;;;;;;21.33;15.50;;;;;;;-0.88;100.00;98466.41;15303098;19;20037;-55
2024/01/07 03:18:06;;;;;;;16.35;12.52;;;;;;;-0.81;100.00;98455.34;15295153;19;20380;-56
2024/01/07 03:23:38;;;;;;;15.43;11.48;;;;;;;-0.80;100.00;98454.41;15300085;19;20020;-59
2024/01/07 03:29:02;;;;;;;12.38;9.60;;;;;;;-0.81;100.00;98443.94;15293883;19;20082;-55
2024/01/07 03:34:30;;;;;;;12.80;10.05;;;;;;;-0.92;100.00;98452.47;15292634;19;20018;-57
2024/01/07 03:39:54;;;;;;;12.73;10.57;;;;;;;-1.00;100.00;98446.78;15295851;19;20392;-56
2024/01/07 03:45:20;;;;;;;19.40;12.68;;;;;;;-1.05;100.00;98456.75;15298020;19;20019;-57
2024/01/07 03:50:47;;;;;;;19.45;12.90;;;;;;;-0.93;100.00;98451.63;15294025;19;20006;-56
2024/01/07 03:56:13;;;;;;;16.88;12.70;;;;;;;-0.90;100.00;98461.19;15295148;19;20437;-56
2024/01/07 04:01:37;;;;;;;14.23;11.18;;;;;;;-1.06;100.00;98458.56;15292463;19;20029;-56
2024/01/07 04:07:06;;;;;;;15.85;11.57;;;;;;;-1.22;100.00;98463.00;15296381;19;20018;-55
2024/01/07 04:12:30;;;;;;;16.00;11.57;;;;;;;-1.29;100.00;98462.50;15294124;19;20081;-55
2024/01/07 04:17:55;;;;;;;13.50;11.52;;;;;;;-1.39;100.00;98464.81;15296079;19;20097;-53
2024/01/07 04:23:22;;;;;;;17.05;13.50;;;;;;;-1.44;100.00;98477.41;15292437;19;20102;-55
2024/01/07 04:28:51;;;;;;;16.33;12.38;;;;;;;-1.49;100.00;98474.19;15291997;19;20027;-55
2024/01/07 04:34:15;;;;;;;13.07;11.25;;;;;;;-1.56;100.00;98473.66;15289193;19;20003;-59
2024/01/07 04:39:43;;;;;;;15.25;11.40;;;;;;;-1.62;100.00;98482.78;15287970;19;20475;-58
2024/01/07 04:45:08;;;;;;;14.63;11.90;;;;;;;-1.70;100.00;98487.59;15289701;19;20039;-53
2024/01/07 04:50:34;;;;;;;14.68;12.00;;;;;;;-1.75;100.00;98489.66;15287587;19;20027;-55
2024/01/07 04:56:01;;;;;;;15.60;12.13;;;;;;;-1.81;100.00;98489.97;15280511;19;20019;-59
2024/01/07 05:01:26;;;;;;;14.95;11.52;;;;;;;-1.84;100.00;98492.78;15288577;19;20006;-60
2024/01/07 05:06:51;;;;;;;13.63;11.48;;;;;;;-1.81;100.00;98508.44;15288442;19;20077;-53
2024/01/07 05:12:19;;;;;;;17.15;12.45;;;;;;;-1.80;100.00;98507.50;15286679;19;20059;-56
2024/01/07 05:17:44;;;;;;;14.07;10.93;;;;;;;-1.87;100.00;98518.41;15284197;19;20038;-56
2024/01/07 05:23:09;;;;;;;13.90;10.85;;;;;;;-1.90;100.00;98521.22;15286447;19;20031;-58
2024/01/07 05:28:36;;;;;;;14.23;10.73;;;;;;;-1.95;100.00;98531.19;15279969;19;20022;-56
2024/01/07 05:34:01;;;;;;;12.38;10.02;;;;;;;-1.98;100.00;98531.31;15286938;19;20369;-53
2024/01/07 05:39:26;;;;;;;12.07;9.05;;;;;;;-2.00;100.00;98532.34;15283252;19;20015;-53
2024/01/07 05:44:54;;;;;;;11.75;9.20;;;;;;;-2.05;100.00;98536.06;15287439;19;20015;-53
2024/01/07 05:50:20;;;;;;;11.65;9.15;;;;;;;-2.11;100.00;98546.94;15285790;19;20014;-55
2024/01/07 05:55:45;;;;;;;13.95;9.15;;;;;;;-2.14;100.00;98549.75;15282412;19;20031;-54
2024/01/07 06:01:12;;;;;;;9.98;8.10;;;;;;;-2.14;100.00;98568.22;15280885;19;20025;-56
2024/01/07 06:06:37;;;;;;;10.57;7.60;;;;;;;-2.17;100.00;98566.56;15292743;19;20023;-55
2024/01/07 06:12:01;;;;;;;10.07;7.40;;;;;;;-2.18;100.00;98556.97;15303653;19;20082;-54
2024/01/07 06:17:29;;;;;;;10.15;7.70;;;;;;;-2.21;100.00;98572.97;15294269;19;20444;-55
2024/01/07 06:22:53;;;;;;;10.80;7.97;;;;;;;-2.23;100.00;98580.09;15298267;19;20369;-52
2024/01/07 06:28:18;;;;;;;11.43;7.55;;;;;;;-2.18;100.00;98577.22;15292121;19;20346;-52
2024/01/07 06:33:45;;;;;;;10.98;6.82;;;;;;;-2.17;100.00;98592.97;15295679;19;21388;-56
2024/01/07 06:39:10;;;;;;;9.60;6.55;;;;;;;-2.21;100.00;98602.00;15295985;19;20554;-53
2024/01/07 06:44:34;;;;;;;7.63;5.32;;;;;;;-2.26;100.00;98598.72;15300806;19;20074;-52
2024/01/07 06:50:02;;;;;;;7.75;5.65;;;;;;;-2.28;100.00;98616.41;15295492;19;20018;-55
2024/01/07 06:55:27;;;;;;;7.97;5.55;;;;;;;-2.30;100.00;98622.69;15296741;19;20015;-54
2024/01/07 07:00:52;;;;;;;9.10;5.30;;;;;;;-2.28;100.00;98620.84;15300166;19;20027;-52
2024/01/07 07:06:20;;;;;;;7.82;4.60;;;;;;;-2.37;100.00;98624.78;15296537;19;20094;-51
2024/01/07 07:11:45;;;;;;;7.22;4.13;;;;;;;-2.36;100.00;98639.69;15299891;19;20066;-53
2024/01/07 07:17:09;;;;;;;6.95;4.90;;;;;;;-2.38;100.00;98641.53;15289465;19;20018;-51
2024/01/07 07:22:37;;;;;;;7.57;4.78;;;;;;;-2.40;100.00;98631.06;15298055;19;20016;-52
2024/01/07 07:28:01;;;;;;;6.55;4.57;;;;;;;-2.40;100.00;98646.03;15294133;19;20042;-52
2024/01/07 07:33:27;;;;;;;6.70;4.43;;;;;;;-2.43;100.00;98646.19;15290433;19;20025;-52
2024/01/07 07:38:54;;;;;;;7.55;4.38;;;;;;;-2.46;100.00;98656.88;15292761;19;20011;-52
2024/01/07 07:44:19;;;;;;;6.38;4.03;;;;;;;-2.51;100.00;98652.69;15293053;19;20074;-51
2024/01/07 07:49:43;;;;;;;5.10;4.00;;;;;;;-2.56;100.00;98673.16;15291506;19;20037;-54
2024/01/07 07:55:11;;;;;;;6.93;4.45;;;;;;;-2.62;100.00;98676.06;15292926;19;20017;-51
2024/01/07 08:00:35;;;;;;;6.68;4.20;;;;;;;-2.63;100.00;98690.19;15295016;19;20026;-51
2024/01/07 08:06:00;;;;;;;5.75;4.15;;;;;;;-2.62;100.00;98694.53;15288570;19;20482;-53
2024/01/07 08:11:32;;;;;;;5.57;3.80;;;;;;;-2.64;100.00;98688.47;15298448;19;20077;-54
2024/01/07 08:16:57;;;;;;;6.50;3.88;;;;;;;-2.66;100.00;98703.53;15294524;19;20014;-53
2024/01/07 08:22:21;;;;;;;8.77;4.30;;;;;;;-2.63;100.00;98709.53;15301111;19;20010;-50
2024/01/07 08:27:50;;;;;;;7.68;4.03;;;;;;;-2.68;100.00;98718.56;15295026;19;20088;-52
2024/01/07 08:33:15;;;;;;;4.32;3.67;;;;;;;-2.72;100.00;98723.13;15299517;19;20094;-51
2024/01/07 08:38:40;;;;;;;5.03;3.20;;;;;;;-2.79;100.00;98729.59;15296018;19;20021;-50
2024/01/07 08:44:08;;;;;;;4.45;3.53;;;;;;;-2.89;100.00;98734.44;15296905;19;20022;-55
2024/01/07 08:49:32;;;;;;;5.80;3.42;;;;;;;-2.91;100.00;98740.69;15297431;19;20018;-56
2024/01/07 08:54:58;;;;;;;4.75;3.42;;;;;;;-2.91;100.00;98741.56;15299920;19;20078;-55
2024/01/07 09:00:26;;;;;;;4.78;3.72;;;;;;;-2.97;100.00;98740.06;15304027;19;20031;-56
2024/01/07 09:05:51;;;;;;;7.25;3.70;;;;;;;-2.92;100.00;98737.22;15297747;19;20014;-56
2024/01/07 09:11:17;;;;;;;4.05;3.63;;;;;;;-2.93;100.00;98767.13;15297324;19;20019;-56
2024/01/07 09:16:45;;;;;;;4.65;3.28;;;;;;;-2.89;100.00;98762.59;15295041;19;20106;-56
2024/01/07 09:22:17;;;;;;;4.70;3.50;;;;;;;-2.73;100.00;98773.28;15289930;19;20381;-56
2024/01/07 09:27:42;;;;;;;4.78;3.40;;;;;;;-2.83;100.00;98776.34;15291306;19;20050;-56
2024/01/07 09:33:10;;;;;;;6.07;3.58;;;;;;;-2.94;100.00;98779.44;15295714;19;20077;-55
2024/01/07 09:38:35;;;;;;;5.15;3.03;;;;;;;-3.10;100.00;98784.53;15292886;19;20018;-57
2024/01/07 09:44:01;;;;;;;4.38;3.05;;;;;;;-3.20;100.00;98785.84;15294269;19;20015;-55
2024/01/07 09:49:29;;;;;;;3.90;3.05;;;;;;;-3.23;100.00;98778.06;15299318;19;20026;-55
2024/01/07 09:55:00;;;;;;;4.10;3.25;;;;;;;-3.30;100.00;98781.91;15301592;19;20020;-56
2024/01/07 10:00:24;;;;;;;4.60;3.20;;;;;;;-3.31;100.00;98773.16;15303104;19;20463;-56
2024/01/07 10:05:52;;;;;;;5.78;3.08;;;;;;;-3.30;100.00;98788.06;15300623;19;20527;-56
2024/01/07 10:11:17;;;;;;;3.30;2.40;;;;;;;-3.37;100.00;98791.84;15304923;19;20092;-55
2024/01/07 10:16:43;;;;;;;3.95;3.25;;;;;;;-3.39;100.00;98798.09;15297269;19;20022;-57
2024/01/07 10:22:19;;;;;;;3.97;2.70;;;;;;;-3.42;100.00;98794.69;15289503;19;20038;-57
2024/01/07 10:27:45;;;;;;;3.38;2.70;;;;;;;-3.47;100.00;98782.63;15275925;19;20018;-58
2024/01/07 10:33:10;;;;;;;3.38;2.40;;;;;;;-3.49;100.00;98787.09;15285512;19;20010;-54
2024/01/07 10:38:40;;;;;;;3.33;2.47;;;;;;;-3.48;100.00;98800.22;15278037;19;20021;-59
2024/01/07 10:44:05;;;;;;;4.00;2.20;;;;;;;-3.54;100.00;98795.19;15284583;19;20015;-54
2024/01/07 10:49:37;;;;;;;3.00;2.38;;;;;;;-3.65;100.00;98787.75;15270969;19;20054;-56
2024/01/07 10:55:11;;;;;;;2.85;2.17;;;;;;;-3.75;100.00;98797.78;15294563;19;20028;-57
2024/01/07 11:00:37;;;;;;;2.58;2.15;;;;;;;-3.71;100.00;98798.50;15295927;19;20404;-58
2024/01/07 11:06:07;;;;;;;2.88;2.35;;;;;;;-3.68;100.00;98794.88;15295083;19;20526;-58
2024/01/07 11:11:44;;;;;;;3.45;2.63;;;;;;;-3.64;100.00;98793.84;15294765;19;20018;-53
2024/01/07 11:17:09;;;;;;;3.33;2.30;;;;;;;-3.43;100.00;98790.31;15294635;19;20081;-55
2024/01/07 11:22:35;;;;;;;2.53;1.88;;;;;;;-3.31;100.00;98796.00;15291780;19;20415;-57
2024/01/07 11:28:04;;;;;;;2.60;1.58;;;;;;;-3.22;100.00;98792.97;15286513;19;20018;-56
2024/01/07 11:33:29;;;;;;;2.60;1.70;;;;;;;-3.12;100.00;98796.06;15295140;19;20084;-51
2024/01/07 11:38:55;;;;;;;1.60;1.50;;;;;;;-3.06;100.00;98793.19;15283964;19;20029;-57
2024/01/07 11:44:23;;;;;;;1.77;1.50;;;;;;;-3.00;100.00;98795.53;15287905;19;20020;-54
2024/01/07 11:49:49;;;;;;;2.22;1.50;;;;;;;-2.98;100.00;98782.28;15286326;19;20074;-54
2024/01/07 11:55:15;;;;;;;1.25;1.15;;;;;;;-2.92;100.00;98787.31;15288903;19;20489;-53
2024/01/07 12:00:42;;;;;;;1.80;1.20;;;;;;;-2.91;100.00;98783.75;15293538;19;20038;-51
2024/01/07 12:06:08;;;;;;;1.30;1.20;;;;;;;-2.81;100.00;98789.44;15287121;19;20025;-58
2024/01/07 12:11:33;;;;;;;1.30;1.13;;;;;;;-2.91;100.00;98796.06;15293370;19;20015;-55
2024/01/07 12:17:04;;;;;;;1.35;1.25;;;;;;;-3.01;100.00;98787.72;15285377;19;20223;-58
2024/01/07 12:22:38;;;;;;;1.52;1.40;;;;;;;-2.98;100.00;98777.00;15289057;19;20053;-58
2024/01/07 12:28:03;;;;;;;1.50;1.40;;;;;;;-2.99;100.00;98791.13;15282729;19;20664;-57
2024/01/07 12:33:31;;;;;;;1.48;1.38;;;;;;;-3.08;100.00;98794.16;15290785;19;20018;-57
2024/01/07 12:38:57;;;;;;;1.60;1.30;;;;;;;-3.09;100.00;98801.22;15280119;19;20014;-54
2024/01/07 12:44:22;;;;;;;1.95;1.35;;;;;;;-3.13;100.00;98782.06;15292025;19;20474;-58
2024/01/07 12:49:50;;;;;;;1.58;1.48;;;;;;;-3.15;100.00;98802.34;15287433;19;20021;-59
2024/01/07 12:55:15;;;;;;;2.13;1.65;;;;;;;-3.13;100.00;98799.63;15283860;19;20019;-56
2024/01/07 13:00:40;;;;;;;1.80;1.50;;;;;;;-3.11;100.00;98801.28;15288927;19;20032;-56
2024/01/07 13:06:08;;;;;;;1.55;1.45;;;;;;;-3.10;100.00;98805.63;15287269;19;20011;-55
2024/01/07 13:11:33;;;;;;;1.65;1.30;;;;;;;-3.10;100.00;98810.91;15288268;19;20417;-59
2024/01/07 13:16:57;;;;;;;1.48;1.33;;;;;;;-3.12;100.00;98818.00;15285891;19;20017;-57
2024/01/07 13:22:31;;;;;;;1.20;1.10;;;;;;;-3.11;100.00;98817.09;15287362;19;20021;-57
2024/01/07 13:27:55;;;;;;;1.40;1.30;;;;;;;-3.12;100.00;98828.53;15281068;19;20093;-57
2024/01/07 13:33:20;;;;;;;1.33;1.20;;;;;;;-3.10;100.00;98831.13;15286897;19;20026;-58
2024/01/07 13:38:49;;;;;;;0.98;0.80;;;;;;;-3.02;100.00;98833.44;15281082;19;20082;-59
2024/01/07 13:44:17;;;;;;;1.45;1.02;;;;;;;-3.00;100.00;98836.88;15285578;19;20043;-56
2024/01/07 13:49:41;;;;;;;1.20;1.10;;;;;;;-2.98;100.00;98829.75;15283469;19;20017;-59
2024/01/07 13:55:09;;;;;;;3.05;1.10;;;;;;;-2.98;100.00;98837.66;15283333;19;20022;-56
2024/01/07 14:00:35;;;;;;;1.45;1.00;;;;;;;-2.97;100.00;98852.53;15276666;19;20027;-58
2024/01/07 14:06:00;;;;;;;0.90;0.90;;;;;;;-2.98;100.00;98843.78;15281467;19;20015;-58
2024/01/07 14:11:28;;;;;;;1.35;1.10;;;;;;;-3.01;100.00;98856.25;15280654;19;20877;-58
2024/01/07 14:16:53;;;;;;;1.52;1.00;;;;;;;-2.96;100.00;98862.16;15254378;19;20014;-57
2024/01/07 14:22:24;;;;;;;1.10;1.10;;;;;;;-2.99;100.00;98867.56;15275413;19;20023;-57
2024/01/07 14:27:51;;;;;;;1.10;1.00;;;;;;;-2.98;100.00;98864.00;15287989;19;20018;-57
2024/01/07 14:33:16;;;;;;;2.40;1.33;;;;;;;-2.99;100.00;98870.19;15292504;19;20037;-57
2024/01/07 14:38:41;;;;;;;1.33;1.10;;;;;;;-2.97;100.00;98876.28;15292553;19;20074;-57
2024/01/07 14:44:09;;;;;;;1.63;1.30;;;;;;;-2.97;100.00;98881.53;15299956;19;20029;-58
2024/01/07 14:49:34;;;;;;;1.40;1.30;;;;;;;-2.99;100.00;98886.03;15289892;19;20025;-58
2024/01/07 14:54:59;;;;;;;1.60;1.50;;;;;;;-3.02;100.00;98888.81;15300088;19;20025;-58
2024/01/07 15:00:26;;;;;;;1.50;1.30;;;;;;;-3.03;100.00;98892.38;15287881;19;20015;-56
2024/01/07 15:05:51;;;;;;;2.20;2.00;;;;;;;-3.02;100.00;98897.56;15286646;19;20109;-58
2024/01/07 15:11:16;;;;;;;1.50;1.25;;;;;;;-3.02;100.00;98907.25;15294824;19;20011;-57
2024/01/07 15:16:45;;;;;;;1.30;1.20;;;;;;;-3.01;100.00;98909.81;15291998;19;20011;-54
2024/01/07 15:22:17;;;;;;;1.35;1.20;;;;;;;-3.02;100.00;98915.16;15291800;19;20025;-57
2024/01/07 15:27:43;;;;;;;1.20;1.10;;;;;;;-3.02;100.00;98902.00;15287927;19;20010;-58
2024/01/07 15:33:10;;;;;;;1.10;1.00;;;;;;;-3.01;100.00;98904.56;15293385;19;20021;-58
2024/01/07 15:38:34;;;;;;;1.10;1.10;;;;;;;-3.02;100.00;98915.16;15286328;19;20350;-58
2024/01/07 15:43:59;;;;;;;1.50;1.20;;;;;;;-3.05;100.00;98925.84;15296199;19;20078;-57
2024/01/07 15:49:26;;;;;;;1.27;1.17;;;;;;;-3.08;100.00;98923.31;15289590;19;20387;-58
2024/01/07 15:54:51;;;;;;;1.90;1.38;;;;;;;-3.10;100.00;98945.31;15294258;19;20014;-57
2024/01/07 16:00:16;;;;;;;1.40;1.30;;;;;;;-3.10;100.00;98929.50;15280751;19;20077;-58
2024/01/07 16:05:44;;;;;;;2.42;1.40;;;;;;;-3.12;100.00;98948.94;15292246;19;20023;-59
2024/01/07 16:11:11;;;;;;;1.67;1.58;;;;;;;-3.12;100.00;98949.78;15288109;19;20006;-57
2024/01/07 16:16:37;;;;;;;2.15;1.50;;;;;;;-3.10;100.00;98955.88;15290600;19;20483;-57
2024/01/07 17:35:16;;;;;;;4.95;4.00;;;;;;;-3.27;100.00;99019.78;15323053;19;20365;-56
2024/01/07 17:40:41;;;;;;;5.88;4.00;;;;;;;-3.27;100.00;99014.50;15281015;19;20575;-57
2024/01/07 17:46:07;;;;;;;5.05;4.13;;;;;;;-3.29;100.00;99004.97;15284603;19;20010;-55
2024/01/07 17:51:35;;;;;;;5.32;4.60;;;;;;;-3.27;100.00;99005.75;15287758;19;20022;-59
2024/01/07 17:57:00;;;;;;;5.90;4.88;;;;;;;-3.24;100.00;99016.19;15293952;19;20007;-58
2024/01/07 18:02:25;;;;;;;6.65;5.50;;;;;;;-3.21;100.00;99016.03;15284983;19;20020;-60
2024/01/07 18:07:52;;;;;;;5.38;4.75;;;;;;;-3.16;100.00;99021.13;15278796;19;20019;-59
2024/01/07 18:13:17;;;;;;;5.80;4.90;;;;;;;-3.14;100.00;99028.09;15282852;19;20470;-59
2024/01/07 18:18:41;;;;;;;6.70;5.47;;;;;;;-3.13;100.00;99027.16;15279783;19;20015;-59
2024/01/07 18:24:08;;;;;;;5.28;4.68;;;;;;;-3.08;100.00;99045.44;15282276;19;20015;-58
2024/01/07 18:29:34;;;;;;;5.63;5.00;;;;;;;-3.03;100.00;99042.63;15281520;19;20078;-59
2024/01/07 18:35:05;;;;;;;5.47;4.70;;;;;;;-2.98;100.00;99041.53;15280103;19;20035;-58
2024/01/07 18:40:32;;;;;;;4.78;4.38;;;;;;;-2.98;100.00;99044.16;15276996;19;20806;-57
2024/01/07 18:45:57;;;;;;;5.45;4.50;;;;;;;-2.95;100.00;99038.78;15279512;19;20601;-59
2024/01/07 18:51:22;;;;;;;4.53;3.83;;;;;;;-2.90;100.00;99048.25;15277450;19;20094;-60
2024/01/07 18:56:49;;;;;;;5.10;4.00;;;;;;;-2.89;100.00;99056.13;15281818;19;20086;-59
2024/01/07 19:02:15;;;;;;;5.22;3.83;;;;;;;-2.83;100.00;99071.69;15280585;19;20086;-57
2024/01/07 19:07:40;;;;;;;4.53;3.83;;;;;;;-2.81;100.00;99069.84;15279641;19;20101;-59
2024/01/07 19:13:10;;;;;;;5.35;4.30;;;;;;;-2.75;100.00;99076.66;15284406;19;20078;-59
2024/01/07 19:18:36;;;;;;;4.70;3.60;;;;;;;-2.70;100.00;99077.31;15290457;19;20042;-59
2024/01/07 19:24:04;;;;;;;6.07;3.13;;;;;;;-2.67;100.00;99077.22;15284452;19;20024;-59
2024/01/07 19:29:31;;;;;;;3.92;3.08;;;;;;;-2.65;100.00;99080.66;15291565;19;20053;-59
2024/01/07 19:34:55;;;;;;;4.53;2.95;;;;;;;-2.62;100.00;99077.00;15293815;19;20026;-58
2024/01/07 19:40:21;;;;;;;3.72;2.90;;;;;;;-2.61;100.00;99081.38;15286578;19;20094;-58
2024/01/07 19:45:50;;;;;;;4.13;2.72;;;;;;;-2.61;100.00;99085.81;15289968;19;20015;-58
2024/01/07 19:51:15;;;;;;;3.63;2.50;;;;;;;-2.61;100.00;99091.94;15287979;19;20026;-57
2024/01/07 19:56:40;;;;;;;2.85;2.47;;;;;;;-2.62;100.00;99087.56;15286297;19;20451;-57
2024/01/07 20:02:08;;;;;;;2.35;2.08;;;;;;;-2.63;100.00;99093.75;15288795;19;20366;-57
2024/01/07 20:07:33;;;;;;;2.78;2.40;;;;;;;-2.66;100.00;99086.00;15283254;19;20385;-58
2024/01/07 20:12:58;;;;;;;3.55;2.38;;;;;;;-2.67;100.00;99093.03;15290293;19;20359;-58
2024/01/07 20:18:26;;;;;;;2.28;1.98;;;;;;;-2.70;100.00;99097.56;15291029;19;20018;-54
2024/01/07 20:23:54;;;;;;;3.35;2.17;;;;;;;-2.71;100.00;99103.78;15283967;19;20022;-59
2024/01/07 20:29:19;;;;;;;3.10;2.80;;;;;;;-2.71;100.00;99103.78;15285736;19;20011;-57
2024/01/07 20:34:47;;;;;;;2.75;2.47;;;;;;;-2.72;100.00;99108.19;15291327;19;20014;-57
2024/01/07 20:40:19;;;;;;;3.63;2.70;;;;;;;-2.71;100.00;99101.13;15287076;19;20085;-59
2024/01/07 20:45:44;;;;;;;2.92;2.55;;;;;;;-2.71;100.00;99109.03;15287123;19;20019;-58
2024/01/07 20:51:11;;;;;;;2.92;2.65;;;;;;;-2.72;100.00;99116.09;15286339;19;20024;-58
2024/01/07 20:56:36;;;;;;;3.42;3.03;;;;;;;-2.74;100.00;99111.78;15281456;19;20035;-59
2024/01/07 21:02:00;;;;;;;3.53;3.22;;;;;;;-2.73;100.00;99108.25;15279963;19;20040;-59
2024/01/07 21:07:27;;;;;;;4.38;3.10;;;;;;;-2.75;100.00;99125.91;15291703;19;20078;-58
2024/01/07 21:12:56;;;;;;;4.43;3.20;;;;;;;-2.79;100.00;99120.75;15283993;19;20015;-60
2024/01/07 21:18:23;;;;;;;4.93;3.20;;;;;;;-2.82;100.00;99135.81;15287328;19;20036;-59
2024/01/07 21:23:52;;;;;;;4.32;3.28;;;;;;;-2.84;100.00;99127.97;15281144;19;20475;-59
2024/01/07 21:29:27;;;;;;;4.65;2.75;;;;;;;-2.84;100.00;99119.22;15281896;19;20014;-59
2024/01/07 21:34:54;;;;;;;5.50;2.88;;;;;;;-2.82;100.00;99120.88;15277359;19;20043;-59
2024/01/07 21:40:28;;;;;;;3.15;2.72;;;;;;;-2.79;100.00;99120.75;15281559;19;20018;-59
2024/01/07 21:45:53;;;;;;;4.03;3.13;;;;;;;-2.76;100.00;99134.75;15282756;19;20066;-59
2024/01/07 21:51:20;;;;;;;3.67;3.05;;;;;;;-2.79;100.00;99131.31;15283400;19;20019;-59
2024/01/07 21:56:50;;;;;;;3.85;3.28;;;;;;;-2.80;100.00;99119.03;15279240;19;20013;-59
2024/01/07 22:02:16;;;;;;;3.70;2.95;;;;;;;-2.82;100.00;99115.59;15280211;19;20413;-59
2024/01/07 22:07:41;;;;;;;2.97;2.67;;;;;;;-2.82;100.00;99120.00;15285371;19;20017;-57
2024/01/07 22:13:08;;;;;;;3.28;2.97;;;;;;;-2.85;100.00;99118.34;15280382;19;20024;-59
2024/01/07 22:18:33;;;;;;;4.25;3.03;;;;;;;-2.86;100.00;99119.25;15277087;19;20011;-58
2024/01/07 22:23:58;;;;;;;3.92;2.83;;;;;;;-2.85;100.00;99136.81;15277128;19;20527;-57
2024/01/07 22:29:25;;;;;;;3.85;3.30;;;;;;;-2.86;100.00;99135.09;15278719;19;20362;-59
2024/01/07 22:34:51;;;;;;;6.07;3.65;;;;;;;-2.87;100.00;99138.63;15285187;19;20550;-59
2024/01/07 22:40:25;;;;;;;3.97;3.50;;;;;;;-2.88;100.00;99147.47;15278877;19;20022;-56
2024/01/07 22:45:52;;;;;;;4.22;3.83;;;;;;;-2.88;100.00;99149.25;15278776;19;20021;-57
2024/01/07 22:51:17;;;;;;;3.78;3.33;;;;;;;-2.85;100.00;99143.88;15293317;19;20024;-59
2024/01/07 22:56:43;;;;;;;4.65;3.80;;;;;;;-2.85;100.00;99150.00;15282324;19;20018;-59
2024/01/07 23:02:11;;;;;;;3.65;3.35;;;;;;;-2.85;100.00;99155.28;15292958;19;20621;-59
2024/01/07 23:07:36;;;;;;;4.55;3.60;;;;;;;-2.83;100.00;99161.34;15289192;19;20078;-59
2024/01/07 23:13:00;;;;;;;4.22;3.30;;;;;;;-2.84;100.00;99162.25;15294789;19;20031;-59
2024/01/07 23:18:28;;;;;;;4.90;3.97;;;;;;;-2.82;100.00;99167.47;15297577;19;20039;-59
2024/01/07 23:23:53;;;;;;;3.97;3.47;;;;;;;-2.81;100.00;99169.19;15290220;19;20022;-59
2024/01/07 23:29:18;;;;;;;5.07;3.90;;;;;;;-2.80;100.00;99174.44;15290698;19;20507;-59
2024/01/07 23:34:46;;;;;;;3.42;3.10;;;;;;;-2.79;100.00;99181.44;15295632;19;20031;-59
2024/01/07 23:40:18;;;;;;;3.35;2.78;;;;;;;-2.88;100.00;99175.63;15281037;19;20078;-59
2024/01/07 23:45:43;;;;;;;4.43;3.30;;;;;;;-2.98;100.00;99172.47;15036670;19;5001279;-58
2024/01/07 23:51:10;;;;;;;3.78;2.97;;;;;;;-3.02;100.00;99187.53;15290224;19;20032;-58
2024/01/07 23:56:38;;;;;;;4.20;3.03;;;;;;;-3.06;100.00;99188.59;15286492;19;20024;-58
